Stonington, CT

12:09 AM EDT on November 01, 2014 (GMT -0400)
Masons Island Marina | Change Station
CLOSE
Current Station
Personal Weather Station
Location: Stonington, CT
Elevation: 30 ft
Nearby Weather Stations

Elev 30 ft 41.34 °N, 71.96 °W | Updated 9 seconds ago

Overcast
Overcast
49.1 °F
Feels Like 44 °F
N
13.0
Wind Variable Wind from NNE
Gusts 16.0 mph

Today
High -- | Low -- °F
--% Chance of Precip.
Yesterday
High -- | Low -- °F
Precip. -- in
7:19 AM 5:42 PM
Waxing Gibbous, 62% visible
Pressure 29.89 in
Visibility 10.0 miles
Clouds Overcast 5500 ft
Windchill 44 °F
Dew Point 41 °F
Humidity 74%
Rainfall 0.00 in
Snow Depth Not available.
UV 0 out of 12
Pollen .50 out of 12
Air Quality Not available.
Flu Activity Not available.
METAR KWST 010353Z AUTO 03007G15KT 360V070 10SM OVC055 09/04 A2989 RMK AO2 SLP122 T00940039

More Conditions Fewer Conditions

Pressure 29.89 in
Visibility 10.0 miles
Clouds Overcast 5500 ft
Windchill 44 °F
Dew Point 41 °F
Humidity 74%
Rainfall 0.00 in
Snow Depth Not available.
UV 0 out of 12
Pollen .50 out of 12
Air Quality Not available.
Flu Activity Not available.
METAR KWST 010353Z AUTO 03007G15KT 360V070 10SM OVC055 09/04 A2989 RMK AO2 SLP122 T00940039

More Conditions Fewer Conditions

10-Day Weather Forecast

Almanac

Astronomy

Nov. 01, 2014 Rise Set
Actual Time
Civil Twilight
Nautical Twilight
Astronomical Twilight
Moon
Length of Visible Light
Length of Day
Tomorrow will be .
, % of the Moon is Illuminated

Today's Extremes

State Highs State Lows

Community

WunderPhotos

Upload Photos

1,766,848 photos uploaded!

WunderBlogs® & News

Nearby

Air Quality

  Air Quality AQ Index Pollutant
Not available.

Snow Depth

Station Depth Elevation

Earthquake Activity

City Distance Mag. Time & Date
Minimum magnitude displayed is 2.5.

Coastal Water Temperatures

Place Temperature

Nearby Weather Stations